createdAt,value
2023-05-14T00:08:00.454Z,0.1
2023-05-14T00:20:00.240Z,0.1
2023-05-14T00:32:00.219Z,0.2
2023-05-14T00:44:00.341Z,0.2
2023-05-14T00:56:00.336Z,0.2
2023-05-14T01:08:00.286Z,0.3
2023-05-14T01:20:00.265Z,0.3
2023-05-14T01:32:00.411Z,0.3
2023-05-14T01:44:00.353Z,0.3
2023-05-14T01:56:00.283Z,0.3
2023-05-14T02:08:00.300Z,0.4
2023-05-14T02:20:00.394Z,0.4
2023-05-14T02:32:00.376Z,0.4
2023-05-14T02:44:00.300Z,0.4
2023-05-14T02:56:00.502Z,0.4
2023-05-14T03:08:00.454Z,0.5
2023-05-14T03:20:00.410Z,0.5
2023-05-14T03:32:00.344Z,0.5
2023-05-14T03:44:00.524Z,0.5
2023-05-14T03:56:00.473Z,0.5
2023-05-14T04:08:00.477Z,0.6
2023-05-14T04:20:00.385Z,0.6
2023-05-14T04:32:00.553Z,0.6
2023-05-14T04:44:00.502Z,0.6
2023-05-14T04:56:00.489Z,0.6
2023-05-14T05:08:00.630Z,0.7
2023-05-14T05:20:00.626Z,0.7
2023-05-14T05:32:00.532Z,0.7
2023-05-14T05:44:00.538Z,0.7
2023-05-14T05:56:00.642Z,0.7
2023-05-14T06:08:00.728Z,0.8
2023-05-14T06:20:00.565Z,0.8
2023-05-14T06:32:00.786Z,0.9
2023-05-14T06:44:00.677Z,0.9
2023-05-14T06:56:00.650Z,0.9
2023-05-14T07:08:00.609Z,0.9
2023-05-14T07:20:00.774Z,0.9
2023-05-14T07:32:00.697Z,1
2023-05-14T07:44:00.679Z,1
2023-05-14T07:56:00.607Z,1
2023-05-14T08:08:00.816Z,1
2023-05-14T08:20:00.716Z,1
2023-05-14T08:32:05.932Z,1.1
2023-05-14T08:44:00.979Z,1.1
2023-05-14T08:56:00.823Z,1.1
2023-05-14T09:08:00.771Z,1.1
2023-05-14T09:20:00.744Z,1.1
2023-05-14T09:32:00.878Z,1.2
2023-05-14T09:44:00.847Z,1.2
2023-05-14T09:56:00.800Z,1.2
2023-05-14T10:08:00.806Z,1.3
2023-05-14T10:20:00.895Z,1.3
2023-05-14T10:32:00.880Z,1.3
2023-05-14T10:44:00.825Z,1.3
2023-05-14T10:56:00.807Z,1.3
2023-05-14T11:08:00.974Z,1.4
2023-05-14T11:20:00.936Z,1.4
2023-05-14T11:32:00.884Z,1.4
2023-05-14T11:44:01.051Z,1.4
2023-05-14T11:56:00.975Z,1.4
2023-05-14T12:08:01.181Z,1.5
2023-05-14T12:20:00.906Z,1.5
2023-05-14T12:32:01.076Z,1.5
2023-05-14T12:44:01.018Z,1.5
2023-05-14T12:56:00.996Z,1.5
2023-05-14T13:08:00.975Z,1.6
2023-05-14T13:20:01.131Z,1.6
2023-05-14T13:32:01.096Z,1.7
2023-05-14T13:44:01.002Z,1.7
2023-05-14T13:56:01.156Z,1.7
2023-05-14T14:08:13.055Z,1.7
2023-05-14T14:20:01.053Z,1.7
2023-05-14T14:32:01.159Z,1.8
2023-05-14T14:44:01.177Z,1.8
2023-05-14T14:56:01.167Z,1.8
2023-05-14T15:08:01.162Z,1.9
2023-05-14T15:20:01.069Z,1.9
2023-05-14T15:32:01.287Z,1.9
2023-05-14T15:44:01.201Z,1.9
2023-05-14T15:56:01.153Z,1.9
2023-05-14T16:08:01.194Z,2
2023-05-14T16:20:01.288Z,2
2023-05-14T16:32:01.296Z,2.1
2023-05-14T16:44:01.170Z,2.1
2023-05-14T16:56:01.402Z,2.1
2023-05-14T17:08:01.634Z,2.1
2023-05-14T17:20:01.288Z,2.1
2023-05-14T17:32:01.270Z,2.2
2023-05-14T17:44:01.373Z,2.2
2023-05-14T17:56:01.338Z,2.2
2023-05-14T18:08:01.324Z,2.3
2023-05-14T18:20:01.241Z,2.3
2023-05-14T18:32:01.412Z,2.3
2023-05-14T18:44:01.350Z,2.3
2023-05-14T18:56:01.345Z,2.3
2023-05-14T19:08:01.513Z,2.4
2023-05-14T19:20:01.408Z,2.4
2023-05-14T19:32:01.570Z,2.4
2023-05-14T19:44:01.568Z,2.4
2023-05-14T19:56:01.435Z,2.4
2023-05-14T20:08:01.436Z,2.5
2023-05-14T20:20:01.573Z,2.5
2023-05-14T20:32:01.539Z,2.6
2023-05-14T20:44:01.447Z,2.6
2023-05-14T20:56:01.417Z,2.6
2023-05-14T21:08:01.590Z,2.7
2023-05-14T21:20:01.535Z,2.7
2023-05-14T21:32:01.504Z,2.8
2023-05-14T21:44:01.491Z,2.8
2023-05-14T21:56:01.633Z,2.8
2023-05-14T22:08:01.645Z,2.9
2023-05-14T22:20:01.578Z,2.9
2023-05-14T22:32:01.541Z,2.9
2023-05-14T22:44:01.668Z,2.9
2023-05-14T22:56:01.658Z,2.9
2023-05-14T23:08:01.612Z,0
2023-05-14T23:20:01.557Z,0
2023-05-14T23:32:01.722Z,0.1
2023-05-14T23:44:01.674Z,0.1
2023-05-14T23:56:01.612Z,0.1
